Avoca, NE (68307)

5:27 PM CDT on September 03, 2015 (GMT -0500)
Hawkins Home - Northeast | | Change Station
CLOSE
Current Station
Personal Weather Station
Location: Syracuse, NE
Elevation: 1100 ft
Nearby Weather Stations

Elev 1100 ft 40.66 °N, 96.18 °W | Updated 6 seconds ago

Clear
Clear
94.0 °F
Feels Like 100 °F
N
9.2
Wind Variable Wind from South
Gusts 9.2 mph

Today
High -- | Low -- °F
--% Chance of Precip.
Yesterday
High -- | Low -- °F
Precip. -- in
6:53 AM 7:53 PM
Waning Gibbous, 66% visible
Pressure 29.82 in
Visibility 10.0 miles
Clouds Clear
Heat Index 100 °F
Dew Point 70 °F
Humidity 46%
Rainfall 0.00 in
Snow Depth Not available.
UV 3 out of 12
Pollen 11.40 out of 12
Air Quality Not available.
Flu Activity Not available.
METAR KPMV 032215Z AUTO 15010G15KT 10SM CLR 32/21 A2982 RMK AO2 LTG DSNT W T03180208
Pressure 29.82 in
Visibility 10.0 miles
Clouds Clear
Heat Index 100 °F
Dew Point 70 °F
Humidity 46%
Rainfall 0.00 in
Snow Depth Not available.
UV 3 out of 12
Pollen 11.40 out of 12
Air Quality Not available.
Flu Activity Not available.
METAR KPMV 032215Z AUTO 15010G15KT 10SM CLR 32/21 A2982 RMK AO2 LTG DSNT W T03180208

10-Day Weather Forecast

×

Almanac

Astronomy

Sep. 03, 2015 Rise Set
Actual Time
Civil Twilight
Nautical Twilight
Astronomical Twilight
Moon
Length of Visible Light
Length of Day
Tomorrow will be .
, % of the Moon is Illuminated

Today's Extremes

State Highs State Lows

Community

WunderPhotos

Upload Photos

1,852,048 photos uploaded!

WunderBlogs® & News

Nearby

Air Quality

  Air Quality AQ Index Pollutant
Not available.

Snow Depth

Station Depth Elevation

Earthquake Activity

City Distance Mag. Time & Date
Minimum magnitude displayed is 2.5.

Coastal Water Temperatures

Place Temperature

Stations

Nearby Weather Stations

Station Location Temp. Windchill Dew Point Humidity Wind Precip. Elev Updated Type